In Rescue
 
Open Full Screen Window  High Contrast Mode
Wind Gusting 00 knots
05
November 28, 2020 12:49 AM EST
Weather Information
Wind Direction
  280 °
Wind Speed
  05 kt (6 mph)
Wind Gust
  00 kt (0 mph)
Altimeter
30.06 in
Visibility
10 SM
Temperature
00° C
32° F
Dewpoint
-04° C
25° F
Humidity
75%
1hr Rain Fall
00.00 in.
24hr Rain Fall
00.00 in.
Sky Condition
Clear
VFR

METAR KY70 280549Z AUTO 28005KT 10SM CLR 00/M04 A3006 RMK AO2 T00001037

FAA Disclaimer: The data displayed is for advisory purposes only and is not to be used for flight planning or operations.